Lyerly, GA (30730)

5:43 AM EDT en Octubre 20, 2014 (GMT -0400)
Fair Oaks/West Rome | Change Station
CLOSE
Current Station
Estación meteorológica personal
Location: Rome, GA
Altura: 794 ft
Estaciones meteorológicas cercanas

Alt 794 ft 34.26 °N, 85.25 °W | Updated 9 seconds ago

Parcialmente nublado
Parcialmente nublado
47.7 ° F
Sensación térmica 48 ° F
N
1.6
Viento Variable Viento desde Norte
Gusts 3.1 mph

Hoy
Alta -- | Baja -- ° F
--% Posibilidad de precipitaciones
Ayer
Alta -- | Baja -- ° F
Precip. -- pul
7:51 AM 7:01 PM
Creciente menguante, 12% visible
Presión 30.10 pul
Visibilidad 10.0 Millas
Nubes Muy nublado 100 ft
Vientos helados 48 ° F
Punto de rocío 47 ° F
Humedad 99%
Precipitaciones 0.00 pul
Espesor de la nieve No disponible.
UV 0 de una escala de 12
Polen 1.80 de una escala de 12
Calidad del aire No disponible.
Flu Activity Sporadic
SPECI KRMG 200931Z AUTO 00000KT 10SM BKN001 06/06 A3010

More Conditions Fewer Conditions

Presión 30.10 pul
Visibilidad 10.0 Millas
Nubes Muy nublado 100 ft
Vientos helados 48 ° F
Punto de rocío 47 ° F
Humedad 99%
Precipitaciones 0.00 pul
Espesor de la nieve No disponible.
UV 0 de una escala de 12
Polen 1.80 de una escala de 12
Calidad del aire No disponible.
Flu Activity Sporadic
SPECI KRMG 200931Z AUTO 00000KT 10SM BKN001 06/06 A3010

More Conditions Fewer Conditions

10-Day Weather Forecast

Almanac

Astronomía

Oct. 20, 2014 Salida Puesta
Hora real 7:51 AM EDT 7:01 PM EDT
Crepúsculo civil 7:25 AM EDT 7:26 PM EDT
Crepúsculo náutico 6:56 AM EDT 7:55 PM EDT
Crepúsculo astronómico 6:27 AM EDT 8:24 PM EDT
Luna 4:46 AM EDT 5:16 PM EDT
Horas de luz 12h 00m
Horas de luz
11h 09m
Creciente menguante, 12% of the Moon is Illuminated
Hoy
Creciente menguante
Oct 23
Nueva
Oct 30
Cuarto creciente
Nov 6
Luna llena
Nov 14
Cuarto menguante

Extremos de hoy

Máximos del estado Bajos del estado

Community

WunderPhotos

Upload Photos

1,763,325 ¡fotos cargadas!

Nearby

Grosos de nieve

Estación Profundido Altura
No tenemos constancia de nieve nueva.

Actividad de terremotos

Ciudad Distance Mag. Tiempo y dato
No hay informes recientes de la actividad sísmica.
Magnitud mínima muestra es 2,5.

Temperaturas de aguas costeras

Lugar Temperatura
Sin partes meteorológicos de las estaciones

Estaciones meteorológicas cercanas